Time;durP1;ratioP1;P1;durP2;ratioP2;P2;SDS_P1;SDS_P2;PMS_P1;PMS_P2;Temp;Humidity;BMP_temperature;BMP_pressure;BME280_temperature;BME280_humidity;BME280_pressure;Samples;Min_cycle;Max_cycle;Signal;HPM_P1;HPM_P2
2024/03/22 00:00:40;;;;;;;32.33;18.70;;;13.70;99.90;;;;;;5079347;28;20464;-56
2024/03/22 00:03:06;;;;;;;24.53;16.73;;;13.80;99.90;;;;;;5079494;28;20441;-57
2024/03/22 00:05:33;;;;;;;23.20;15.60;;;13.70;99.90;;;;;;5079771;28;20807;-56
2024/03/22 00:07:59;;;;;;;26.77;17.63;;;13.80;99.90;;;;;;5079447;28;20198;-56
2024/03/22 00:10:26;;;;;;;26.70;17.50;;;13.70;99.90;;;;;;5079292;28;20464;-56
2024/03/22 00:12:52;;;;;;;27.30;16.50;;;13.80;99.90;;;;;;5079479;28;20292;-56
2024/03/22 00:15:20;;;;;;;30.80;18.20;;;13.80;99.90;;;;;;5079170;28;20529;-56
2024/03/22 00:17:46;;;;;;;27.73;17.60;;;13.80;99.90;;;;;;5079348;28;20536;-57
2024/03/22 00:20:13;;;;;;;28.23;16.80;;;13.80;99.90;;;;;;5079401;28;20551;-56
2024/03/22 00:22:38;;;;;;;24.00;16.37;;;13.80;99.90;;;;;;5079256;28;20202;-56
2024/03/22 00:25:06;;;;;;;22.47;16.17;;;13.80;99.90;;;;;;5074943;28;20523;-56
2024/03/22 00:27:32;;;;;;;32.07;16.30;;;13.80;99.90;;;;;;5076143;28;20198;-56
2024/03/22 00:29:59;;;;;;;25.37;17.27;;;13.80;99.90;;;;;;5076460;28;20547;-56
2024/03/22 00:32:26;;;;;;;27.93;15.90;;;13.80;99.90;;;;;;5075649;28;20202;-56
2024/03/22 00:34:53;;;;;;;24.33;16.23;;;13.80;99.90;;;;;;5075834;28;20456;-56
2024/03/22 00:37:19;;;;;;;25.70;15.17;;;13.80;99.90;;;;;;5075536;28;20484;-56
2024/03/22 00:39:45;;;;;;;22.50;15.87;;;13.80;99.90;;;;;;5075897;28;20460;-56
2024/03/22 00:42:11;;;;;;;24.97;17.73;;;13.80;99.90;;;;;;5075752;28;20202;-56
2024/03/22 00:44:38;;;;;;;24.23;16.40;;;13.90;99.90;;;;;;5075490;28;20446;-56
2024/03/22 00:47:05;;;;;;;24.67;16.77;;;13.90;99.90;;;;;;5075442;28;20289;-56
2024/03/22 00:49:34;;;;;;;23.70;17.20;;;13.90;99.90;;;;;;5075681;28;20507;-56
2024/03/22 00:52:00;;;;;;;22.77;17.03;;;13.80;99.90;;;;;;5075158;28;20930;-56
2024/03/22 00:54:27;;;;;;;25.87;16.37;;;13.80;99.90;;;;;;5075072;28;20867;-57
2024/03/22 00:56:53;;;;;;;25.30;16.87;;;13.80;99.90;;;;;;5074776;28;20578;-57
2024/03/22 00:59:19;;;;;;;24.00;15.83;;;13.80;99.90;;;;;;5075359;28;20551;-56
2024/03/22 01:01:45;;;;;;;25.23;16.80;;;13.80;99.90;;;;;;5075400;28;20285;-56
2024/03/22 01:04:12;;;;;;;23.47;15.03;;;13.80;99.90;;;;;;5075348;28;20867;-56
2024/03/22 01:06:39;;;;;;;22.50;16.20;;;13.80;99.90;;;;;;5074891;28;20654;-56
2024/03/22 01:09:07;;;;;;;25.67;15.77;;;13.80;99.90;;;;;;5075080;28;20475;-57
2024/03/22 01:11:33;;;;;;;25.33;17.90;;;13.80;99.90;;;;;;5074801;28;21011;-56
2024/03/22 01:14:00;;;;;;;25.00;16.47;;;13.80;99.90;;;;;;5075260;28;20474;-57
2024/03/22 01:16:25;;;;;;;25.50;16.50;;;13.80;99.90;;;;;;5074888;28;20306;-57
2024/03/22 01:18:52;;;;;;;28.00;15.83;;;13.80;99.90;;;;;;5074963;28;20499;-57
2024/03/22 01:21:18;;;;;;;23.50;15.87;;;13.80;99.90;;;;;;5075057;28;20394;-56
2024/03/22 01:23:46;;;;;;;24.70;16.80;;;13.80;99.90;;;;;;5074867;28;20535;-56
2024/03/22 01:26:12;;;;;;;28.33;17.30;;;13.80;99.90;;;;;;5074902;28;20206;-56
2024/03/22 01:28:39;;;;;;;26.23;16.20;;;13.80;99.90;;;;;;5074580;28;21081;-57
2024/03/22 01:31:05;;;;;;;25.40;17.67;;;13.80;99.90;;;;;;5074892;28;20209;-56
2024/03/22 01:33:32;;;;;;;26.17;15.40;;;13.80;99.90;;;;;;5074694;28;20523;-57
2024/03/22 01:35:57;;;;;;;26.17;16.50;;;13.80;99.90;;;;;;5074542;28;20297;-56
2024/03/22 01:38:24;;;;;;;18.80;13.73;;;13.80;99.90;;;;;;5074602;28;20528;-57
2024/03/22 01:40:51;;;;;;;24.67;18.40;;;13.80;99.90;;;;;;5074573;28;20230;-57
2024/03/22 01:43:18;;;;;;;23.07;16.37;;;13.80;99.90;;;;;;5074622;28;20717;-57
2024/03/22 01:45:44;;;;;;;24.17;16.07;;;13.80;99.90;;;;;;5074486;28;20934;-56
2024/03/22 01:48:12;;;;;;;24.57;16.03;;;13.80;99.90;;;;;;5074738;28;20524;-56
2024/03/22 01:50:39;;;;;;;25.27;16.07;;;13.80;99.90;;;;;;5074305;28;20543;-57
2024/03/22 01:53:06;;;;;;;23.90;15.87;;;13.80;99.90;;;;;;5074366;28;20440;-57
2024/03/22 01:55:32;;;;;;;20.47;14.30;;;13.80;99.90;;;;;;5074310;28;20854;-56
2024/03/22 01:58:00;;;;;;;23.43;14.30;;;13.80;99.90;;;;;;5074091;28;20457;-57
2024/03/22 02:00:27;;;;;;;22.30;15.87;;;13.80;99.90;;;;;;5074269;28;20512;-56
2024/03/22 02:02:53;;;;;;;26.00;17.23;;;13.80;99.90;;;;;;5073903;28;20445;-57
2024/03/22 02:05:21;;;;;;;18.30;14.50;;;13.80;99.90;;;;;;5074102;28;20452;-56
2024/03/22 02:07:47;;;;;;;22.80;15.73;;;13.70;99.90;;;;;;5074285;28;20202;-56
2024/03/22 02:10:14;;;;;;;24.30;16.80;;;13.70;99.90;;;;;;5073825;28;20828;-56
2024/03/22 02:12:41;;;;;;;22.93;15.17;;;13.70;99.90;;;;;;5074026;28;20448;-57
2024/03/22 02:15:10;;;;;;;21.67;15.20;;;13.70;99.90;;;;;;5073640;28;21017;-57
2024/03/22 02:17:36;;;;;;;22.20;16.00;;;13.70;99.90;;;;;;5073582;28;20554;-57
2024/03/22 02:20:04;;;;;;;20.03;14.20;;;13.70;99.90;;;;;;5073798;28;20547;-56
2024/03/22 02:22:31;;;;;;;19.17;15.10;;;13.70;99.90;;;;;;5073925;28;20202;-56
2024/03/22 02:24:59;;;;;;;20.40;15.67;;;13.70;99.90;;;;;;5073521;28;20444;-56
2024/03/22 02:27:25;;;;;;;24.17;14.00;;;13.70;99.90;;;;;;5073732;28;20514;-57
2024/03/22 02:29:52;;;;;;;26.80;15.93;;;13.70;99.90;;;;;;5073692;28;20465;-56
2024/03/22 02:32:18;;;;;;;22.93;14.30;;;13.60;99.90;;;;;;5073504;28;20476;-56
2024/03/22 02:34:45;;;;;;;24.80;14.97;;;13.70;99.90;;;;;;5073731;28;20479;-56
2024/03/22 02:37:10;;;;;;;24.50;16.13;;;13.70;99.90;;;;;;5073576;28;20222;-56
2024/03/22 02:39:37;;;;;;;23.07;15.63;;;13.70;99.90;;;;;;5073543;28;20559;-56
2024/03/22 02:42:05;;;;;;;21.60;16.33;;;13.70;99.90;;;;;;5073664;28;20284;-56
2024/03/22 02:44:32;;;;;;;23.37;16.00;;;13.80;99.90;;;;;;5073736;28;20497;-57
2024/03/22 02:46:57;;;;;;;22.40;14.97;;;13.80;99.90;;;;;;5073167;28;20930;-57
2024/03/22 02:49:26;;;;;;;19.60;14.63;;;13.80;99.90;;;;;;5074053;28;20559;-56
2024/03/22 02:51:51;;;;;;;23.50;15.80;;;13.80;99.90;;;;;;5074017;28;20212;-56
2024/03/22 02:54:18;;;;;;;25.67;16.50;;;13.80;99.90;;;;;;5073737;28;20523;-56
2024/03/22 02:56:44;;;;;;;29.60;16.93;;;13.80;99.90;;;;;;5073294;28;20323;-56
2024/03/22 02:59:12;;;;;;;28.17;17.13;;;13.80;99.90;;;;;;5073435;28;20460;-56
2024/03/22 03:01:38;;;;;;;26.40;16.40;;;13.80;99.90;;;;;;5073687;28;20211;-56
2024/03/22 03:04:05;;;;;;;24.97;16.40;;;13.80;99.90;;;;;;5073201;28;21037;-56
2024/03/22 03:06:31;;;;;;;26.13;19.03;;;13.80;99.90;;;;;;5073207;28;20198;-56
2024/03/22 03:08:57;;;;;;;23.40;16.57;;;13.80;99.90;;;;;;5073132;28;20471;-57
2024/03/22 03:11:23;;;;;;;26.50;18.17;;;13.80;99.90;;;;;;5073417;28;20198;-56
2024/03/22 03:13:50;;;;;;;23.90;16.60;;;13.80;99.90;;;;;;5074166;28;20467;-56
2024/03/22 03:16:17;;;;;;;22.40;17.50;;;13.70;99.90;;;;;;5073270;28;20221;-56
2024/03/22 03:18:44;;;;;;;21.23;16.13;;;13.80;99.90;;;;;;5073249;28;20551;-57
2024/03/22 03:21:10;;;;;;;24.03;16.67;;;13.80;99.90;;;;;;5073401;28;20536;-57
2024/03/22 03:23:37;;;;;;;26.73;17.30;;;13.70;99.90;;;;;;5073224;28;20450;-57
2024/03/22 03:26:03;;;;;;;22.17;15.47;;;13.70;99.90;;;;;;5072956;28;20436;-56
2024/03/22 03:28:30;;;;;;;26.93;17.67;;;13.70;99.90;;;;;;5073036;28;20463;-57
2024/03/22 03:30:56;;;;;;;21.63;16.83;;;13.70;99.90;;;;;;5073198;28;20812;-56
2024/03/22 03:33:24;;;;;;;29.03;18.47;;;13.70;99.90;;;;;;5072845;28;20446;-56
2024/03/22 03:35:50;;;;;;;24.30;17.67;;;13.70;99.90;;;;;;5073018;28;20650;-56
2024/03/22 03:38:16;;;;;;;23.20;16.90;;;13.60;99.90;;;;;;5072948;28;20539;-57
2024/03/22 03:40:42;;;;;;;26.77;19.20;;;13.60;99.90;;;;;;5072717;28;20743;-56
2024/03/22 03:43:09;;;;;;;23.27;17.07;;;13.60;99.90;;;;;;5072848;28;20544;-56
2024/03/22 03:45:36;;;;;;;25.27;18.67;;;13.60;99.90;;;;;;5073038;28;20203;-56
2024/03/22 03:48:03;;;;;;;28.10;19.10;;;13.60;99.90;;;;;;5073185;28;20527;-56
2024/03/22 03:50:31;;;;;;;27.10;18.87;;;13.60;99.90;;;;;;5072978;28;20467;-56
2024/03/22 03:52:58;;;;;;;25.10;18.50;;;13.60;99.90;;;;;;5073108;28;20452;-56
2024/03/22 03:55:23;;;;;;;24.37;18.70;;;13.60;99.90;;;;;;5072701;28;20444;-56
2024/03/22 03:57:51;;;;;;;24.60;19.30;;;13.60;99.90;;;;;;5072716;28;20486;-56
2024/03/22 04:00:18;;;;;;;23.30;18.00;;;13.50;99.90;;;;;;5075749;28;20222;-56
2024/03/22 04:02:45;;;;;;;22.47;16.57;;;13.50;99.90;;;;;;5076620;28;20440;-56
2024/03/22 04:05:11;;;;;;;25.30;18.60;;;13.50;99.90;;;;;;5076790;28;20488;-57
2024/03/22 04:07:42;;;;;;;30.03;20.67;;;13.50;99.90;;;;;;5076649;28;20452;-56
2024/03/22 04:10:08;;;;;;;28.37;20.07;;;13.50;99.90;;;;;;5076822;28;20309;-56
2024/03/22 04:12:36;;;;;;;27.43;20.77;;;13.50;99.90;;;;;;5076819;28;20517;-56
2024/03/22 04:15:02;;;;;;;24.77;19.00;;;13.50;99.90;;;;;;5076694;28;20448;-57
2024/03/22 04:17:28;;;;;;;24.87;19.20;;;13.50;99.90;;;;;;5076784;28;20480;-57
2024/03/22 04:19:54;;;;;;;25.40;19.73;;;13.50;99.90;;;;;;5076666;28;20249;-57
2024/03/22 04:22:21;;;;;;;29.07;19.60;;;13.40;99.90;;;;;;5076556;28;20476;-56
2024/03/22 04:24:48;;;;;;;29.13;19.30;;;13.40;99.90;;;;;;5076346;28;20203;-57
2024/03/22 04:27:15;;;;;;;25.17;19.13;;;13.40;99.90;;;;;;5076625;28;20444;-57
2024/03/22 04:29:41;;;;;;;21.30;17.80;;;13.40;99.90;;;;;;5076212;28;20478;-56
2024/03/22 04:32:08;;;;;;;22.03;17.93;;;13.40;99.90;;;;;;5076168;28;20531;-57
2024/03/22 04:34:34;;;;;;;22.03;16.60;;;13.40;99.90;;;;;;5076397;28;20206;-57
2024/03/22 04:37:00;;;;;;;26.10;19.90;;;13.30;99.90;;;;;;5076515;28;20837;-56
2024/03/22 04:39:27;;;;;;;24.60;16.77;;;13.30;99.90;;;;;;5077064;28;20226;-56
2024/03/22 04:41:54;;;;;;;21.50;17.20;;;13.40;99.90;;;;;;5076971;28;20536;-56
2024/03/22 04:44:21;;;;;;;23.23;17.20;;;13.40;99.90;;;;;;5076746;28;20523;-56
2024/03/22 04:46:48;;;;;;;24.70;18.37;;;13.40;99.90;;;;;;5076639;28;20529;-56
2024/03/22 04:49:15;;;;;;;25.57;17.83;;;13.40;99.90;;;;;;5076545;28;20461;-57
2024/03/22 04:51:41;;;;;;;22.27;17.27;;;13.40;99.90;;;;;;5076742;28;20452;-56
2024/03/22 04:54:07;;;;;;;20.30;16.10;;;13.40;99.90;;;;;;5077229;28;20459;-56
2024/03/22 04:56:34;;;;;;;19.00;16.43;;;13.40;99.90;;;;;;5077449;28;21066;-56
2024/03/22 04:59:01;;;;;;;22.97;15.27;;;13.40;99.90;;;;;;5078028;28;20569;-57
2024/03/22 05:01:29;;;;;;;20.80;15.80;;;13.40;99.90;;;;;;5077960;28;21133;-56
2024/03/22 05:03:55;;;;;;;24.40;15.10;;;13.50;99.90;;;;;;5076853;28;20954;-57
2024/03/22 05:06:22;;;;;;;22.30;16.27;;;13.50;99.90;;;;;;5075378;28;20516;-56
2024/03/22 05:08:48;;;;;;;20.70;14.60;;;13.50;99.90;;;;;;5075333;28;20305;-57
2024/03/22 05:11:15;;;;;;;21.23;16.13;;;13.50;99.90;;;;;;5074878;28;21029;-56
2024/03/22 05:13:40;;;;;;;19.00;15.80;;;13.50;99.90;;;;;;5075225;28;20285;-57
2024/03/22 05:16:11;;;;;;;20.30;15.40;;;13.50;99.90;;;;;;5075163;28;21006;-56
2024/03/22 05:18:37;;;;;;;20.53;14.20;;;13.50;99.90;;;;;;5075120;28;20621;-57
2024/03/22 05:21:04;;;;;;;16.53;14.00;;;13.60;99.90;;;;;;5074700;28;20535;-57
2024/03/22 05:23:29;;;;;;;21.40;15.87;;;13.60;99.90;;;;;;5075011;28;20202;-57
2024/03/22 05:25:56;;;;;;;22.23;14.30;;;13.60;99.90;;;;;;5075063;28;20440;-56
2024/03/22 05:28:22;;;;;;;17.07;14.10;;;13.60;99.90;;;;;;5075103;28;20202;-57
2024/03/22 05:30:49;;;;;;;22.37;14.80;;;13.60;99.90;;;;;;5075275;28;20449;-56
2024/03/22 05:33:16;;;;;;;19.97;15.50;;;13.60;99.90;;;;;;5074814;28;20198;-57
2024/03/22 05:35:43;;;;;;;20.67;15.50;;;13.60;99.90;;;;;;5075070;28;20535;-56
2024/03/22 05:38:09;;;;;;;21.90;15.00;;;13.60;99.90;;;;;;5074688;28;20490;-56
2024/03/22 05:40:38;;;;;;;19.60;16.00;;;13.60;99.90;;;;;;5074763;28;20548;-57
2024/03/22 05:43:04;;;;;;;22.50;15.93;;;13.60;99.90;;;;;;5074698;28;20203;-56
2024/03/22 05:45:31;;;;;;;20.07;15.70;;;13.70;99.90;;;;;;5074249;28;20492;-56
2024/03/22 05:47:57;;;;;;;17.90;14.63;;;13.70;99.90;;;;;;5074413;28;20437;-56
2024/03/22 05:50:25;;;;;;;21.73;16.60;;;13.60;99.90;;;;;;5074395;28;20831;-56
2024/03/22 05:52:51;;;;;;;20.43;15.90;;;13.70;99.90;;;;;;5074037;28;20297;-56
2024/03/22 05:55:18;;;;;;;21.23;14.67;;;13.70;99.90;;;;;;5074422;28;20536;-56
2024/03/22 05:57:44;;;;;;;23.83;16.07;;;13.70;99.90;;;;;;5073981;28;20498;-56
2024/03/22 06:00:13;;;;;;;20.83;16.43;;;13.70;99.90;;;;;;5074185;28;20551;-56
2024/03/22 06:02:39;;;;;;;23.17;16.50;;;13.70;99.90;;;;;;5074125;28;20206;-57
2024/03/22 06:05:06;;;;;;;21.37;16.40;;;13.80;99.90;;;;;;5074353;28;20498;-57
2024/03/22 06:07:40;;;;;;;24.80;17.20;;;13.80;99.90;;;;;;5074582;28;20437;-56
2024/03/22 06:10:09;;;;;;;20.47;16.80;;;13.80;99.90;;;;;;5074806;28;20526;-56
2024/03/22 06:12:35;;;;;;;19.97;16.60;;;13.90;99.90;;;;;;5074598;28;20441;-56
2024/03/22 06:15:05;;;;;;;25.00;17.93;;;13.90;99.90;;;;;;5074084;28;20895;-56
2024/03/22 06:17:32;;;;;;;19.50;16.47;;;13.90;99.90;;;;;;5074188;28;20523;-56
2024/03/22 06:19:59;;;;;;;23.70;18.00;;;13.90;99.90;;;;;;5073761;28;20978;-57
2024/03/22 06:22:25;;;;;;;19.60;16.20;;;13.90;99.90;;;;;;5073261;28;20448;-56
2024/03/22 06:24:53;;;;;;;25.17;17.60;;;14.00;99.90;;;;;;5074394;28;20509;-56
2024/03/22 06:27:19;;;;;;;26.67;18.73;;;14.00;99.90;;;;;;5074199;28;20202;-56
2024/03/22 06:29:46;;;;;;;23.90;17.60;;;14.00;99.90;;;;;;5073807;28;20460;-56
2024/03/22 06:32:12;;;;;;;29.23;18.20;;;14.00;99.90;;;;;;5073872;28;20203;-57
2024/03/22 06:34:39;;;;;;;20.37;17.23;;;14.00;99.90;;;;;;5073458;28;20447;-56
2024/03/22 06:37:05;;;;;;;25.27;18.73;;;14.10;99.90;;;;;;5073637;28;20486;-56
2024/03/22 06:39:32;;;;;;;29.60;18.93;;;14.10;99.90;;;;;;5073750;28;20486;-56
2024/03/22 06:42:00;;;;;;;28.27;21.43;;;14.20;99.90;;;;;;5073445;28;20439;-56
2024/03/22 06:44:26;;;;;;;27.80;21.13;;;14.30;99.90;;;;;;5073746;28;20452;-56
2024/03/22 06:46:53;;;;;;;27.10;19.53;;;14.30;99.90;;;;;;5073547;28;20447;-56
2024/03/22 06:49:20;;;;;;;28.17;20.97;;;14.40;99.90;;;;;;5073195;28;20910;-56
2024/03/22 06:51:45;;;;;;;25.97;21.00;;;14.40;99.90;;;;;;5073457;28;20816;-56
2024/03/22 06:54:12;;;;;;;23.07;20.17;;;14.50;99.90;;;;;;5073491;28;20540;-56
2024/03/22 06:56:38;;;;;;;26.60;21.80;;;14.40;99.90;;;;;;5073237;28;20317;-57
2024/03/22 06:59:06;;;;;;;30.27;21.87;;;14.50;99.90;;;;;;5073392;28;20552;-57
2024/03/22 07:01:32;;;;;;;27.70;21.50;;;14.50;99.90;;;;;;5073398;28;20207;-57
2024/03/22 07:03:59;;;;;;;30.60;23.40;;;14.50;99.90;;;;;;5073394;28;20443;-56
2024/03/22 07:06:25;;;;;;;24.10;20.37;;;14.60;99.90;;;;;;5073461;28;20556;-56
2024/03/22 07:08:51;;;;;;;30.30;23.20;;;14.60;99.90;;;;;;5073112;28;20539;-56
2024/03/22 07:11:17;;;;;;;36.23;23.90;;;14.70;99.90;;;;;;5073183;28;20199;-56
2024/03/22 07:13:44;;;;;;;32.27;21.57;;;14.60;99.90;;;;;;5073309;28;20441;-56
2024/03/22 07:16:11;;;;;;;29.40;21.73;;;14.70;99.90;;;;;;5073405;28;20206;-56
2024/03/22 07:18:38;;;;;;;29.10;23.53;;;14.70;99.90;;;;;;5073128;28;20480;-57
2024/03/22 07:21:04;;;;;;;29.73;23.23;;;14.80;99.90;;;;;;5072797;28;20448;-56
2024/03/22 07:23:31;;;;;;;25.67;22.83;;;14.80;99.90;;;;;;5073169;28;20611;-56
2024/03/22 07:25:57;;;;;;;35.37;24.47;;;14.80;99.90;;;;;;5073043;28;20445;-56
2024/03/22 07:28:24;;;;;;;29.80;23.93;;;14.80;99.90;;;;;;5073036;28;20441;-56
2024/03/22 07:30:50;;;;;;;31.47;24.00;;;14.90;99.90;;;;;;5072722;28;20449;-56
2024/03/22 07:33:18;;;;;;;32.60;23.07;;;14.90;99.90;;;;;;5074393;28;20471;-56
2024/03/22 07:35:44;;;;;;;32.77;22.70;;;14.90;99.90;;;;;;5077478;28;20216;-56
2024/03/22 07:38:11;;;;;;;32.97;23.60;;;14.90;99.90;;;;;;5076991;28;20955;-56
2024/03/22 07:40:37;;;;;;;32.27;23.50;;;15.00;99.90;;;;;;5076922;28;20228;-56
2024/03/22 07:43:06;;;;;;;33.20;23.83;;;15.00;99.90;;;;;;5076798;28;20444;-56
2024/03/22 07:45:32;;;;;;;33.93;25.37;;;15.00;99.90;;;;;;5076897;28;20202;-56
2024/03/22 07:47:59;;;;;;;37.83;23.70;;;15.00;99.90;;;;;;5076763;28;20432;-56
2024/03/22 07:50:26;;;;;;;29.10;21.50;;;15.00;99.90;;;;;;5076630;28;20544;-56
2024/03/22 07:52:54;;;;;;;32.97;23.80;;;15.00;99.90;;;;;;5076816;28;20453;-56
2024/03/22 07:55:20;;;;;;;30.67;24.67;;;15.10;99.90;;;;;;5076749;28;20647;-56
2024/03/22 07:57:47;;;;;;;31.27;23.00;;;15.00;99.90;;;;;;5076189;28;20885;-56
2024/03/22 08:00:13;;;;;;;29.17;21.00;;;15.10;99.90;;;;;;5076574;28;20555;-56
2024/03/22 08:02:40;;;;;;;26.97;21.97;;;15.10;99.90;;;;;;5076204;28;20453;-56
2024/03/22 08:05:07;;;;;;;26.03;19.73;;;15.20;99.90;;;;;;5076718;28;20435;-56
2024/03/22 08:07:35;;;;;;;29.23;19.73;;;15.10;99.90;;;;;;5076343;28;20452;-56
2024/03/22 08:10:02;;;;;;;30.30;19.30;;;15.10;99.90;;;;;;5076817;28;20471;-57
2024/03/22 08:12:29;;;;;;;32.30;20.83;;;15.10;99.90;;;;;;5076111;28;20539;-56
2024/03/22 08:14:55;;;;;;;26.17;20.17;;;15.00;99.90;;;;;;5076372;28;20471;-56
2024/03/22 08:17:22;;;;;;;26.30;19.63;;;15.00;99.90;;;;;;5076297;28;20476;-56
2024/03/22 08:19:48;;;;;;;27.10;19.87;;;15.00;99.90;;;;;;5075868;28;20492;-56
2024/03/22 08:22:15;;;;;;;28.50;19.20;;;15.10;99.90;;;;;;5076364;28;20471;-56
2024/03/22 08:24:42;;;;;;;26.33;17.40;;;15.10;99.90;;;;;;5076229;28;20203;-56
2024/03/22 08:27:09;;;;;;;22.83;16.70;;;15.20;99.90;;;;;;5075983;28;20482;-56
2024/03/22 08:29:35;;;;;;;22.07;16.53;;;15.20;99.90;;;;;;5076316;28;20833;-56
2024/03/22 08:32:04;;;;;;;22.43;17.67;;;15.20;99.90;;;;;;5076028;28;20476;-57
2024/03/22 08:34:30;;;;;;;25.70;17.33;;;15.30;99.90;;;;;;5076130;28;20285;-56
2024/03/22 08:36:57;;;;;;;27.73;17.33;;;15.40;99.90;;;;;;5076122;28;21062;-56
2024/03/22 08:39:24;;;;;;;22.93;16.70;;;15.50;99.90;;;;;;5075985;28;20468;-57
2024/03/22 08:41:52;;;;;;;19.13;16.40;;;15.60;99.70;;;;;;5075931;28;20440;-56
2024/03/22 08:44:18;;;;;;;17.67;15.77;;;15.70;99.30;;;;;;5075600;28;20827;-56
2024/03/22 08:46:45;;;;;;;20.67;15.80;;;15.80;99.70;;;;;;5075644;28;20451;-56
2024/03/22 08:49:12;;;;;;;28.97;17.70;;;15.90;99.10;;;;;;5075299;28;20476;-57
2024/03/22 08:51:38;;;;;;;17.27;15.33;;;16.00;98.60;;;;;;5075674;28;20445;-57
2024/03/22 08:54:05;;;;;;;18.57;15.50;;;16.10;99.00;;;;;;5075761;28;20479;-56
2024/03/22 08:56:31;;;;;;;18.53;15.40;;;16.20;98.10;;;;;;5075461;28;20456;-57
2024/03/22 08:58:59;;;;;;;29.70;16.27;;;16.30;98.10;;;;;;5075281;28;20571;-56
2024/03/22 09:01:26;;;;;;;23.67;15.77;;;16.30;97.50;;;;;;5075632;28;20447;-56
2024/03/22 09:03:52;;;;;;;22.07;16.67;;;16.30;97.10;;;;;;5075604;28;20452;-56
2024/03/22 09:06:19;;;;;;;21.23;16.20;;;16.20;97.60;;;;;;5075318;28;20580;-56
2024/03/22 09:08:45;;;;;;;18.20;15.43;;;16.20;97.00;;;;;;5075379;28;20452;-56
2024/03/22 09:11:12;;;;;;;20.53;16.67;;;16.20;97.40;;;;;;5075284;28;20436;-56
2024/03/22 09:13:38;;;;;;;28.83;16.43;;;16.20;97.60;;;;;;5075377;28;20198;-56
2024/03/22 09:16:07;;;;;;;22.33;15.73;;;16.20;97.50;;;;;;5075057;28;20544;-56
2024/03/22 09:18:33;;;;;;;24.30;16.40;;;16.20;97.40;;;;;;5075148;28;20565;-57
2024/03/22 09:21:00;;;;;;;18.33;15.40;;;16.30;97.50;;;;;;5075184;28;20447;-56
2024/03/22 09:23:25;;;;;;;18.13;16.20;;;16.30;97.60;;;;;;5075460;28;20449;-56
2024/03/22 09:25:52;;;;;;;21.13;16.03;;;16.40;97.30;;;;;;5075465;28;20539;-56
2024/03/22 09:28:18;;;;;;;19.77;16.63;;;16.40;96.90;;;;;;5075352;28;20285;-56
2024/03/22 09:30:45;;;;;;;17.10;15.07;;;16.50;97.10;;;;;;5075207;28;20881;-56
2024/03/22 09:33:13;;;;;;;23.10;16.43;;;16.60;97.20;;;;;;5075299;28;20590;-56
2024/03/22 09:35:40;;;;;;;18.60;15.87;;;16.70;96.80;;;;;;5074829;28;20440;-56
2024/03/22 09:38:06;;;;;;;21.90;18.13;;;16.70;96.70;;;;;;5074825;28;20853;-56
2024/03/22 09:40:33;;;;;;;19.33;16.30;;;16.80;96.10;;;;;;5074781;28;20464;-56
2024/03/22 09:43:03;;;;;;;18.77;16.23;;;16.70;96.40;;;;;;5075178;28;20447;-56
2024/03/22 09:45:30;;;;;;;19.87;15.90;;;16.80;96.70;;;;;;5075349;28;20506;-56
2024/03/22 09:47:57;;;;;;;21.93;17.07;;;16.90;96.50;;;;;;5074625;28;20484;-56
2024/03/22 09:50:26;;;;;;;23.03;17.73;;;16.90;95.90;;;;;;5074452;28;20456;-56
2024/03/22 09:52:52;;;;;;;22.07;16.03;;;16.90;95.70;;;;;;5074535;28;20444;-56
2024/03/22 09:55:23;;;;;;;20.07;17.23;;;16.90;96.00;;;;;;5074293;28;20433;-56
2024/03/22 09:57:50;;;;;;;21.30;16.17;;;16.80;95.90;;;;;;5074231;28;20484;-56
2024/03/22 10:00:20;;;;;;;25.10;18.00;;;16.70;95.50;;;;;;5074513;28;20467;-56
2024/03/22 10:02:47;;;;;;;20.50;15.97;;;16.70;95.40;;;;;;5074359;28;20897;-56
2024/03/22 10:05:14;;;;;;;18.67;15.77;;;16.60;95.60;;;;;;5074064;28;20991;-56
2024/03/22 10:07:41;;;;;;;21.47;16.10;;;16.60;95.70;;;;;;5074257;28;20806;-56
2024/03/22 10:10:08;;;;;;;22.50;17.20;;;16.50;95.80;;;;;;5074178;28;20465;-56
2024/03/22 10:12:34;;;;;;;22.67;16.77;;;16.50;96.00;;;;;;5074147;28;20452;-56
2024/03/22 10:15:01;;;;;;;24.20;17.27;;;16.40;96.10;;;;;;5074305;28;20448;-56
2024/03/22 10:17:28;;;;;;;19.67;17.53;;;16.40;96.10;;;;;;5074067;28;20210;-56
2024/03/22 10:19:54;;;;;;;22.00;17.43;;;16.40;96.70;;;;;;5073972;28;20518;-56
2024/03/22 10:22:21;;;;;;;24.80;16.30;;;16.50;96.80;;;;;;5073973;28;20490;-56
2024/03/22 10:24:49;;;;;;;20.30;17.53;;;16.70;96.40;;;;;;5073907;28;20927;-56
2024/03/22 10:27:15;;;;;;;24.13;18.87;;;16.70;95.70;;;;;;5073879;28;20520;-56
2024/03/22 10:29:42;;;;;;;24.40;17.73;;;16.80;94.80;;;;;;5073455;28;20912;-56
2024/03/22 10:32:10;;;;;;;24.77;18.60;;;16.80;95.60;;;;;;5073797;28;20202;-57
2024/03/22 10:34:37;;;;;;;19.50;16.83;;;16.80;95.60;;;;;;5073610;28;20436;-56
2024/03/22 10:37:04;;;;;;;19.20;17.07;;;16.90;95.80;;;;;;5073767;28;20447;-56
2024/03/22 10:39:31;;;;;;;23.10;17.27;;;16.90;95.00;;;;;;5073911;28;20507;-56
2024/03/22 10:41:59;;;;;;;22.37;15.93;;;16.90;95.30;;;;;;5074052;28;20491;-56
2024/03/22 10:44:26;;;;;;;20.37;17.50;;;16.90;95.10;;;;;;5073810;28;20490;-56
2024/03/22 10:46:55;;;;;;;22.43;16.40;;;16.80;94.90;;;;;;5073640;28;20837;-56
2024/03/22 10:49:22;;;;;;;18.77;15.80;;;16.70;94.90;;;;;;5073942;28;20498;-56
2024/03/22 10:51:52;;;;;;;19.93;15.77;;;16.70;94.90;;;;;;5074125;28;20449;-56
2024/03/22 10:54:21;;;;;;;22.20;16.00;;;16.60;94.80;;;;;;5073576;28;20460;-57
2024/03/22 10:56:48;;;;;;;17.67;15.10;;;16.60;95.30;;;;;;5073465;28;20456;-56
2024/03/22 10:59:20;;;;;;;18.87;14.70;;;16.60;94.60;;;;;;5073546;28;20504;-57
2024/03/22 11:01:46;;;;;;;17.30;14.17;;;16.60;94.70;;;;;;5073514;28;20930;-56
2024/03/22 11:04:14;;;;;;;21.00;16.17;;;16.60;94.20;;;;;;5073826;28;20445;-56
2024/03/22 11:06:40;;;;;;;19.20;15.77;;;16.60;94.60;;;;;;5073453;28;20474;-56
2024/03/22 11:09:07;;;;;;;19.87;14.50;;;16.60;94.50;;;;;;5073121;28;20924;-56
2024/03/22 11:11:37;;;;;;;18.03;15.60;;;16.70;93.90;;;;;;5073522;28;20202;-56
2024/03/22 11:14:04;;;;;;;18.10;14.57;;;16.70;93.20;;;;;;5073309;28;20464;-56
2024/03/22 11:16:31;;;;;;;18.60;15.77;;;16.70;93.10;;;;;;5073145;28;20448;-56
2024/03/22 11:18:58;;;;;;;21.07;15.03;;;16.80;93.40;;;;;;5072866;28;20982;-56
2024/03/22 11:21:24;;;;;;;19.90;16.23;;;16.80;94.10;;;;;;5073159;28;20435;-56
2024/03/22 11:23:51;;;;;;;19.20;16.60;;;17.00;94.20;;;;;;5073706;28;20436;-56
2024/03/22 11:26:16;;;;;;;18.13;16.10;;;17.20;94.00;;;;;;5073368;28;20202;-56
2024/03/22 11:28:44;;;;;;;18.37;14.60;;;17.50;93.10;;;;;;5073375;28;20551;-56
2024/03/22 11:31:09;;;;;;;19.63;14.53;;;17.60;92.10;;;;;;5073407;28;20208;-56
2024/03/22 11:33:38;;;;;;;18.77;15.37;;;17.60;91.00;;;;;;5073422;28;20436;-56
2024/03/22 11:36:04;;;;;;;18.30;14.80;;;17.70;91.20;;;;;;5073447;28;20556;-56
2024/03/22 11:38:32;;;;;;;16.70;13.93;;;18.00;90.10;;;;;;5073332;28;20530;-57
2024/03/22 11:41:00;;;;;;;16.63;14.73;;;18.30;90.70;;;;;;5073571;28;20508;-56
2024/03/22 11:43:28;;;;;;;18.63;14.67;;;18.30;89.60;;;;;;5073584;28;20873;-56
2024/03/22 11:45:54;;;;;;;18.20;15.70;;;18.50;90.00;;;;;;5073754;28;20472;-56
2024/03/22 11:48:21;;;;;;;17.03;15.20;;;18.60;88.50;;;;;;5073748;28;20436;-56
2024/03/22 11:50:49;;;;;;;17.90;14.80;;;18.60;87.50;;;;;;5073976;28;20441;-56
2024/03/22 11:53:17;;;;;;;16.20;13.43;;;18.50;88.00;;;;;;5073971;28;20512;-57
2024/03/22 11:55:43;;;;;;;19.43;14.30;;;18.40;87.20;;;;;;5074240;28;20449;-58
2024/03/22 11:58:10;;;;;;;16.40;14.00;;;18.20;88.40;;;;;;5074495;28;20606;-56
2024/03/22 12:00:37;;;;;;;16.40;13.87;;;18.10;88.10;;;;;;5074459;28;20225;-56
2024/03/22 12:03:06;;;;;;;15.97;12.80;;;18.00;88.50;;;;;;5074441;28;20448;-56
2024/03/22 12:05:32;;;;;;;19.07;13.17;;;17.90;88.30;;;;;;5074715;28;20449;-56
2024/03/22 12:08:00;;;;;;;17.33;14.70;;;17.80;88.00;;;;;;5073989;28;21029;-56
2024/03/22 12:10:26;;;;;;;16.03;14.30;;;17.90;89.20;;;;;;5072863;28;20249;-56
2024/03/22 12:12:53;;;;;;;15.63;13.83;;;17.80;89.80;;;;;;5073082;28;20954;-56
2024/03/22 12:15:19;;;;;;;14.40;13.00;;;17.80;88.90;;;;;;5072404;28;20713;-56
2024/03/22 12:17:46;;;;;;;15.47;13.77;;;17.70;89.40;;;;;;5072337;28;20476;-56
2024/03/22 12:20:14;;;;;;;19.67;15.40;;;17.70;89.80;;;;;;5073603;28;20317;-56
2024/03/22 12:22:41;;;;;;;17.47;14.37;;;17.60;90.40;;;;;;5076330;28;20476;-56
2024/03/22 12:25:09;;;;;;;17.80;14.70;;;17.60;90.80;;;;;;5076198;28;20535;-56